Main page
METAR-TAF:

METAR-TAF

Airports :

Udaipur, India

Maharana Pratap Airport

latitude: 24-37-04N, longitude: 73-53-46E, elevation: 513 m

Current weather observation

The report was made 2 hours and 48 minutes ago, at 14:30 UTC
Wind 9 kt from the East/Northeast
Temperature 23°C
Humidity 94%
Pressure 1003 hPa
Visibility: 4000 m
Scattered clouds at a height of 1500 ft
Broken clouds at a height of 2500 ft
Few clouds at a height of 3500 ft, Cumulonimbus.
Broken clouds at a height of 3000 ft

METAR: VAUD 261430Z 06009KT 4000 SCT015 BKN025 FEW035CB BKN030 23/22 Q1003 NOSIG

Time: 22:48 (17:18 UTC)


TAF: missing

Weather observations and forecasts of more than 4000 airports (METAR and TAF reports).

The available stations are represented by yellow and red dots on the map.

Hover mouse over dot to see the name of the station.

Then click to see weather observations and forecasts.

To change the map : click on the green buttons with a black cross to zoom in, on the green button with a dash to zoom out, or on the green arrows for adjacent maps.


METAR-TAF: